Main page
METAR-TAF:

METAR-TAF

Airports :

Split, Croatia

Split Airport

latitude: 43-32N, longitude: 016-18E, elevation: 19 m

Current weather observation

The report was made 18 minutes ago, at 22:30 UTC
Wind 2 kt from variable directions
Temperature 17°C
Humidity 63%
Pressure 1012 hPa
Visibility 10 km or more
no clouds below 1500 m and no cumulonimbus

METAR: LDSP 262230Z AUTO VRB02KT CAVOK 17/10 Q1012

Time: 00:48 (22:48 UTC)

Forecast

The report was made 5 hours and 23 minutes ago, at 17:25 UTC
Forecast valid from 26 at 18 UTC to 27 at 18 UTC
Wind 2 kt from variable directions
Visibility 10 km or more
no clouds below 1500 m and no cumulonimbus
Temporary
from 27 at 03 UTC to 27 at 07 UTC
Wind 8 kt from the Northeast
Becoming
from 27 at 10 UTC to 27 at 12 UTC
Wind 8 kt from the Southwest
Becoming
from 27 at 16 UTC to 27 at 18 UTC
Wind 2 kt from variable directions

TAF: LDSP 261725Z 2618/2718 VRB02KT CAVOK TX26/2713Z TN13/2703Z TEMPO 2703/2707 05008KT BECMG 2710/2712 23008KT BECMG 2716/2718 VRB02KT

Weather observations and forecasts of more than 4000 airports (METAR and TAF reports).

The available stations are represented by yellow and red dots on the map.

Hover mouse over dot to see the name of the station.

Then click to see weather observations and forecasts.

To change the map : click on the green buttons with a black cross to zoom in, on the green button with a dash to zoom out, or on the green arrows for adjacent maps.


METAR-TAF: